Memphis, TN (37544)

11:02 AM CST on December 18, 2014 (GMT -0600)
Midtown Memphis (OEM) | Change Station
CLOSE
Current Station
Personal Weather Station
Location: Memphis, TN
Elevation: 320 ft
Nearby Weather Stations

Elev 320 ft 35.13 °N, 89.97 °W | Updated 2 minutes ago

Overcast
Overcast
41.4 °F
Feels Like 41 °F
N
1.0
Wind Variable Wind from East
Gusts 1.0 mph

Today
High -- | Low -- °F
--% Chance of Precip.
Yesterday
High -- | Low -- °F
Precip. -- in
7:02 AM 4:50 PM
Waning Crescent, 13% visible
Pressure 30.26 in
Visibility 7.0 miles
Clouds Overcast 3200 ft
Windchill 41 °F
Dew Point 38 °F
Humidity 87%
Rainfall 0.07 in
Snow Depth Not available.
UV 1 out of 12
Pollen .10 out of 12
Air Quality Not available.
Flu Activity Not available.
METAR KMEM 181654Z 10003KT 7SM OVC032 06/02 A3025 RMK AO2 SLP246 T00560022 $

More Conditions Fewer Conditions

Pressure 30.26 in
Visibility 7.0 miles
Clouds Overcast 3200 ft
Windchill 41 °F
Dew Point 38 °F
Humidity 87%
Rainfall 0.07 in
Snow Depth Not available.
UV 1 out of 12
Pollen .10 out of 12
Air Quality Not available.
Flu Activity Not available.
METAR KMEM 181654Z 10003KT 7SM OVC032 06/02 A3025 RMK AO2 SLP246 T00560022 $

More Conditions Fewer Conditions

10-Day Weather Forecast

Almanac

Astronomy

Dec. 18, 2014 Rise Set
Actual Time
Civil Twilight
Nautical Twilight
Astronomical Twilight
Moon
Length of Visible Light
Length of Day
Tomorrow will be .
, % of the Moon is Illuminated

Today's Extremes

State Highs State Lows

Community

WunderPhotos

Upload Photos

1,778,964 photos uploaded!

WunderBlogs® & News

Nearby

Air Quality

  Air Quality AQ Index Pollutant
Not available.

Snow Depth

Station Depth Elevation

Earthquake Activity

City Distance Mag. Time & Date
Minimum magnitude displayed is 2.5.

Coastal Water Temperatures

Place Temperature

Nearby Weather Stations